createdAt,value
2024-04-18T00:00:21.242Z,8.52
2024-04-18T00:03:09.135Z,10.70
2024-04-18T00:05:37.860Z,8.57
2024-04-18T00:08:06.204Z,8.55
2024-04-18T00:10:34.782Z,8.23
2024-04-18T00:13:02.700Z,6.13
2024-04-18T00:15:31.077Z,8.48
2024-04-18T00:18:00.185Z,9.00
2024-04-18T00:20:29.386Z,6.47
2024-04-18T00:23:17.233Z,7.00
2024-04-18T00:26:05.594Z,6.90
2024-04-18T00:28:33.568Z,5.57
2024-04-18T00:31:16.198Z,8.45
2024-04-18T00:33:57.868Z,8.02
2024-04-18T00:36:29.898Z,6.40
2024-04-18T00:38:57.905Z,5.88
2024-04-18T00:41:26.265Z,5.50
2024-04-18T00:44:03.322Z,9.07
2024-04-18T00:46:35.654Z,6.30
2024-04-18T00:49:23.803Z,10.90
2024-04-18T00:51:55.209Z,8.45
2024-04-18T00:54:23.859Z,6.88
2024-04-18T00:57:00.246Z,8.30
2024-04-18T00:59:28.299Z,9.75
2024-04-18T01:02:29.302Z,7.53
2024-04-18T01:05:29.600Z,7.00
2024-04-18T01:07:57.974Z,7.43
2024-04-18T01:10:25.917Z,8.48
2024-04-18T01:13:01.660Z,7.18
2024-04-18T01:16:05.380Z,7.97
2024-04-18T01:18:34.088Z,5.65
2024-04-18T01:21:15.752Z,7.55
2024-04-18T01:23:44.134Z,7.47
2024-04-18T01:26:12.641Z,8.27
2024-04-18T01:28:40.979Z,8.50
2024-04-18T01:31:08.902Z,9.00
2024-04-18T01:33:37.403Z,6.03
2024-04-18T01:36:05.437Z,6.18
2024-04-18T01:38:52.371Z,6.38
2024-04-18T01:41:31.339Z,6.18
2024-04-18T01:44:02.839Z,5.82
2024-04-18T01:46:49.173Z,6.22
2024-04-18T01:49:32.660Z,8.55
2024-04-18T01:52:00.655Z,5.85
2024-04-18T01:54:35.578Z,5.97
2024-04-18T01:57:03.573Z,7.57
2024-04-18T01:59:50.765Z,8.20
2024-04-18T02:02:19.542Z,6.30
2024-04-18T02:05:07.068Z,5.22
2024-04-18T02:07:44.652Z,5.78
2024-04-18T02:10:13.106Z,5.72
2024-04-18T02:12:59.887Z,6.25
2024-04-18T02:15:46.436Z,5.80
2024-04-18T02:18:17.072Z,8.25
2024-04-18T02:20:45.485Z,5.82
2024-04-18T02:23:25.585Z,8.40
2024-04-18T02:25:53.959Z,5.00
2024-04-18T02:28:22.751Z,6.47
2024-04-18T02:31:11.079Z,7.78
2024-04-18T02:36:19.750Z,5.53
2024-04-18T02:38:47.664Z,6.53
2024-04-18T02:41:15.991Z,5.55
2024-04-18T02:43:55.316Z,6.60
2024-04-18T02:46:25.076Z,5.18
2024-04-18T02:49:11.912Z,5.97
2024-04-18T02:52:00.553Z,5.95
2024-04-18T02:54:46.718Z,4.93
2024-04-18T02:57:15.323Z,7.47
2024-04-18T02:59:43.264Z,6.10
2024-04-18T03:02:26.946Z,5.82
2024-04-18T03:05:33.787Z,8.25
2024-04-18T03:08:02.206Z,6.20
2024-04-18T03:10:52.625Z,5.10
2024-04-18T03:13:39.427Z,6.10
2024-04-18T03:16:27.402Z,8.82
2024-04-18T03:18:55.935Z,8.02
2024-04-18T03:21:23.847Z,5.03
2024-04-18T03:23:52.294Z,6.80
2024-04-18T03:26:38.766Z,5.45
2024-04-18T03:29:07.240Z,6.82
2024-04-18T03:31:55.122Z,7.55
2024-04-18T03:34:43.652Z,6.47
2024-04-18T03:37:11.738Z,7.85
2024-04-18T03:39:40.195Z,8.00
2024-04-18T03:42:08.508Z,8.50
2024-04-18T03:44:58.755Z,5.93
2024-04-18T03:47:26.799Z,4.97
2024-04-18T03:50:10.445Z,5.43
2024-04-18T03:52:42.104Z,5.53
2024-04-18T03:55:29.004Z,5.50
2024-04-18T03:57:57.010Z,8.05
2024-04-18T04:00:43.924Z,4.68
2024-04-18T04:03:12.281Z,7.32
2024-04-18T04:05:40.857Z,7.18
2024-04-18T04:08:08.835Z,4.93
2024-04-18T04:10:43.816Z,5.18
2024-04-18T04:13:12.124Z,4.65
2024-04-18T04:15:53.150Z,3.92
2024-04-18T04:18:39.832Z,4.95
2024-04-18T04:21:26.983Z,7.25
2024-04-18T04:23:55.500Z,4.43
2024-04-18T04:26:43.771Z,7.97
2024-04-18T04:29:11.782Z,5.60
2024-04-18T04:31:40.113Z,6.53
2024-04-18T04:34:08.701Z,7.72
2024-04-18T04:36:37.161Z,6.88
2024-04-18T04:39:05.161Z,10.32
2024-04-18T04:41:41.363Z,7.18
2024-04-18T04:44:09.411Z,5.63
2024-04-18T04:46:50.836Z,7.28
2024-04-18T04:49:19.823Z,5.30
2024-04-18T04:52:05.560Z,6.13
2024-04-18T04:54:45.458Z,7.40
2024-04-18T04:57:15.407Z,8.30
2024-04-18T04:59:44.659Z,9.07
2024-04-18T05:02:13.266Z,7.18
2024-04-18T05:04:53.846Z,9.57
2024-04-18T05:07:35.168Z,6.22
2024-04-18T05:10:21.698Z,4.13
2024-04-18T05:12:51.795Z,3.92
2024-04-18T05:15:35.710Z,8.15
2024-04-18T05:18:05.389Z,5.55
2024-04-18T05:20:33.555Z,4.70
2024-04-18T05:23:01.875Z,5.72
2024-04-18T05:25:29.813Z,5.85
2024-04-18T05:28:42.524Z,6.15
2024-04-18T05:31:10.605Z,8.07
2024-04-18T05:33:39.336Z,5.88
2024-04-18T05:36:07.768Z,5.45
2024-04-18T05:38:36.142Z,6.13
2024-04-18T05:41:04.217Z,5.78
2024-04-18T05:43:50.685Z,4.38
2024-04-18T05:46:18.680Z,5.65
2024-04-18T05:48:47.053Z,6.35
2024-04-18T05:51:15.457Z,5.03
2024-04-18T05:54:02.584Z,5.80
2024-04-18T05:56:30.984Z,5.13
2024-04-18T05:58:59.391Z,6.35
2024-04-18T06:01:27.469Z,5.50
2024-04-18T06:03:55.893Z,7.78
2024-04-18T06:06:23.979Z,7.78
2024-04-18T06:08:55.543Z,4.75
2024-04-18T06:11:36.728Z,4.70
2024-04-18T06:14:20.369Z,5.28
2024-04-18T06:16:48.374Z,4.32
2024-04-18T06:19:16.900Z,5.20
2024-04-18T06:21:44.885Z,5.97
2024-04-18T06:24:13.339Z,4.25
2024-04-18T06:26:44.760Z,5.20
2024-04-18T06:29:13.222Z,3.67
2024-04-18T06:31:41.212Z,5.70
2024-04-18T06:34:10.061Z,4.75
2024-04-18T06:36:38.086Z,5.47
2024-04-18T06:39:08.983Z,5.13
2024-04-18T06:41:37.867Z,3.40
2024-04-18T06:44:07.669Z,4.05
2024-04-18T06:46:45.462Z,4.65
2024-04-18T06:49:21.320Z,4.53
2024-04-18T06:51:49.260Z,4.05
2024-04-18T06:54:17.645Z,4.50
2024-04-18T06:56:45.710Z,4.80
2024-04-18T06:59:14.085Z,4.40
2024-04-18T07:01:42.049Z,3.70
2024-04-18T07:04:10.725Z,6.00
2024-04-18T07:06:39.058Z,6.57
2024-04-18T07:09:07.739Z,7.05
2024-04-18T07:11:44.617Z,3.97
2024-04-18T07:14:13.255Z,4.28
2024-04-18T07:16:41.199Z,5.55
2024-04-18T07:19:28.159Z,5.32
2024-04-18T07:21:56.133Z,4.93
2024-04-18T07:24:27.633Z,6.45
2024-04-18T07:26:57.073Z,5.78
2024-04-18T07:29:25.732Z,7.25
2024-04-18T07:31:53.732Z,5.30
2024-04-18T07:34:22.270Z,4.63
2024-04-18T07:36:50.612Z,4.93
2024-04-18T07:39:20.204Z,6.27
2024-04-18T07:41:48.622Z,7.43
2024-04-18T07:44:18.730Z,5.80
2024-04-18T07:46:49.393Z,5.93
2024-04-18T07:49:17.938Z,6.30
2024-04-18T07:51:46.463Z,7.13
2024-04-18T07:54:15.968Z,5.93
2024-04-18T07:56:44.611Z,9.20
2024-04-18T07:59:15.476Z,6.03
2024-04-18T08:01:45.140Z,3.67
2024-04-18T08:06:47.228Z,3.00
2024-04-18T08:09:19.990Z,3.80
2024-04-18T08:14:25.054Z,2.90
2024-04-18T08:16:56.615Z,3.88
2024-04-18T08:19:25.025Z,5.85
2024-04-18T08:21:53.120Z,4.07
2024-04-18T08:24:29.098Z,4.50
2024-04-18T08:27:12.755Z,4.20
2024-04-18T08:29:41.246Z,5.55
2024-04-18T08:32:09.377Z,3.85
2024-04-18T08:34:41.116Z,3.65
2024-04-18T08:37:11.131Z,4.70
2024-04-18T08:39:39.666Z,5.53
2024-04-18T08:42:11.651Z,4.05
2024-04-18T08:44:40.887Z,3.72
2024-04-18T08:47:09.962Z,3.30
2024-04-18T08:49:39.697Z,3.03
2024-04-18T08:52:08.487Z,4.07
2024-04-18T08:54:38.022Z,4.13
2024-04-18T08:57:07.731Z,3.28
2024-04-18T08:59:36.304Z,6.65
2024-04-18T09:02:04.881Z,2.80
2024-04-18T09:04:36.342Z,4.28
2024-04-18T09:07:04.703Z,5.03
2024-04-18T09:09:33.293Z,3.28
2024-04-18T09:12:04.203Z,3.90
2024-04-18T09:14:34.146Z,2.90
2024-04-18T09:17:02.198Z,3.10
2024-04-18T09:19:30.646Z,2.70
2024-04-18T09:22:02.120Z,2.92
2024-04-18T09:24:30.990Z,3.10
2024-04-18T09:26:59.539Z,2.70
2024-04-18T09:29:28.115Z,3.22
2024-04-18T09:31:57.493Z,2.67
2024-04-18T09:34:26.050Z,3.42
2024-04-18T09:36:54.197Z,4.15
2024-04-18T09:39:29.572Z,2.70
2024-04-18T09:42:14.249Z,2.90
2024-04-18T09:44:44.837Z,3.22
2024-04-18T09:47:13.295Z,3.05
2024-04-18T09:49:42.324Z,2.90
2024-04-18T09:52:10.888Z,3.05
2024-04-18T09:54:39.731Z,3.63
2024-04-18T09:57:08.385Z,2.38
2024-04-18T09:59:37.839Z,2.93
2024-04-18T10:02:09.412Z,3.20
2024-04-18T10:04:38.191Z,3.33
2024-04-18T10:07:06.976Z,4.00
2024-04-18T10:09:37.271Z,4.57
2024-04-18T10:12:06.562Z,4.55
2024-04-18T10:14:35.010Z,7.05
2024-04-18T10:17:10.723Z,3.40
2024-04-18T10:19:43.625Z,2.42
2024-04-18T10:22:23.652Z,2.83
2024-04-18T10:24:58.128Z,3.30
2024-04-18T10:27:26.145Z,2.70
2024-04-18T10:30:01.488Z,2.67
2024-04-18T10:32:33.444Z,3.75
2024-04-18T10:35:01.992Z,3.30
2024-04-18T10:37:29.958Z,3.65
2024-04-18T10:39:59.933Z,3.22
2024-04-18T10:42:28.012Z,3.40
2024-04-18T10:44:57.045Z,4.43
2024-04-18T10:47:25.052Z,3.90
2024-04-18T10:49:53.676Z,3.25
2024-04-18T10:52:21.680Z,3.15
2024-04-18T10:54:50.134Z,3.78
2024-04-18T10:57:19.085Z,4.53
2024-04-18T10:59:53.463Z,2.45
2024-04-18T11:02:21.725Z,2.33
2024-04-18T11:04:50.425Z,2.83
2024-04-18T11:07:20.194Z,2.78
2024-04-18T11:09:48.579Z,2.65
2024-04-18T11:12:16.576Z,2.97
2024-04-18T11:14:45.422Z,4.80
2024-04-18T11:17:13.371Z,4.55
2024-04-18T11:19:41.752Z,3.30
2024-04-18T11:22:09.773Z,2.85
2024-04-18T11:24:38.910Z,3.85
2024-04-18T11:27:09.038Z,2.63
2024-04-18T11:29:38.711Z,3.42
2024-04-18T11:32:06.857Z,4.83
2024-04-18T11:34:35.377Z,4.53
2024-04-18T11:37:04.843Z,3.13
2024-04-18T11:42:01.456Z,2.35
2024-04-18T11:44:30.671Z,2.63
2024-04-18T11:46:58.698Z,2.58
2024-04-18T11:49:27.357Z,3.08
2024-04-18T11:51:55.542Z,3.30
2024-04-18T11:54:23.912Z,4.93
2024-04-18T11:56:51.887Z,5.05
2024-04-18T11:59:33.324Z,3.65
2024-04-18T12:02:01.305Z,3.45
2024-04-18T12:04:29.795Z,3.70
2024-04-18T12:06:57.892Z,4.00
2024-04-18T12:09:29.634Z,3.30
2024-04-18T12:12:02.536Z,5.95
2024-04-18T12:14:49.026Z,3.63
2024-04-18T12:17:30.467Z,4.00
2024-04-18T12:20:18.570Z,3.42
2024-04-18T12:22:47.156Z,3.20
2024-04-18T12:25:16.773Z,3.92
2024-04-18T12:27:45.360Z,3.13
2024-04-18T12:30:32.701Z,3.33
2024-04-18T12:33:19.535Z,3.22
2024-04-18T12:35:49.156Z,3.45
2024-04-18T12:38:17.471Z,3.70
2024-04-18T12:40:48.216Z,9.07
2024-04-18T12:43:19.176Z,3.50
2024-04-18T12:46:06.530Z,6.50
2024-04-18T12:48:52.665Z,3.80
2024-04-18T12:51:21.453Z,6.07
2024-04-18T12:53:49.412Z,3.80
2024-04-18T12:56:19.442Z,4.32
2024-04-18T12:58:47.733Z,3.85
2024-04-18T13:01:16.544Z,3.40
2024-04-18T13:03:46.015Z,5.88
2024-04-18T13:06:33.292Z,3.50
2024-04-18T13:09:21.331Z,3.65
2024-04-18T13:11:49.855Z,4.28
2024-04-18T13:14:17.849Z,4.28
2024-04-18T13:16:47.315Z,4.93
2024-04-18T13:19:15.309Z,5.73
2024-04-18T13:21:43.943Z,4.30
2024-04-18T13:24:14.060Z,4.40
2024-04-18T13:26:55.331Z,4.78
2024-04-18T13:29:26.529Z,3.60
2024-04-18T13:32:15.298Z,3.83
2024-04-18T13:34:43.690Z,3.67
2024-04-18T13:37:12.442Z,5.72
2024-04-18T13:39:51.600Z,4.28
2024-04-18T13:42:20.220Z,4.47
2024-04-18T13:44:54.711Z,3.30
2024-04-18T13:47:46.090Z,4.28
2024-04-18T13:50:14.200Z,4.43
2024-04-18T13:52:42.733Z,3.80
2024-04-18T13:55:10.765Z,3.90
2024-04-18T13:57:39.552Z,3.70
2024-04-18T14:00:23.072Z,3.72
2024-04-18T14:03:10.195Z,3.90
2024-04-18T14:05:58.511Z,3.45
2024-04-18T14:08:40.089Z,3.75
2024-04-18T14:11:28.862Z,4.38
2024-04-18T14:14:09.802Z,4.13
2024-04-18T14:17:15.721Z,5.55
2024-04-18T14:20:04.002Z,5.07
2024-04-18T14:22:33.618Z,6.57
2024-04-18T14:25:02.204Z,3.45
2024-04-18T14:27:38.755Z,5.10
2024-04-18T14:30:27.770Z,4.72
2024-04-18T14:33:11.861Z,4.25
2024-04-18T14:38:08.928Z,4.95
2024-04-18T14:40:37.388Z,4.90
2024-04-18T14:43:11.040Z,4.80
2024-04-18T14:45:47.845Z,4.40
2024-04-18T14:48:18.849Z,5.82
2024-04-18T14:50:53.463Z,4.00
2024-04-18T14:53:41.333Z,3.85
2024-04-18T14:56:09.733Z,4.00
2024-04-18T14:58:39.166Z,4.72
2024-04-18T15:01:23.621Z,4.40
2024-04-18T15:03:51.634Z,3.80
2024-04-18T15:06:20.519Z,4.45
2024-04-18T15:09:08.752Z,3.83
2024-04-18T15:11:56.869Z,5.85
2024-04-18T15:14:38.288Z,4.05
2024-04-18T15:17:10.022Z,3.90
2024-04-18T15:19:38.390Z,4.10
2024-04-18T15:22:25.746Z,6.05
2024-04-18T15:25:13.667Z,4.53
2024-04-18T15:27:42.365Z,4.25
2024-04-18T15:30:10.551Z,4.53
2024-04-18T15:32:39.480Z,4.70
2024-04-18T15:35:22.937Z,4.55
2024-04-18T15:38:10.241Z,4.13
2024-04-18T15:41:00.329Z,4.75
2024-04-18T15:43:36.938Z,7.40
2024-04-18T15:46:05.144Z,6.22
2024-04-18T15:48:33.779Z,5.15
2024-04-18T15:51:01.961Z,4.47
2024-04-18T15:53:33.656Z,6.85
2024-04-18T15:56:08.458Z,4.65
2024-04-18T15:58:55.587Z,4.20
2024-04-18T16:01:24.295Z,4.60
2024-04-18T16:04:11.390Z,6.22
2024-04-18T16:06:58.284Z,4.82
2024-04-18T16:09:45.296Z,5.05
2024-04-18T16:12:22.436Z,4.18
2024-04-18T16:15:04.663Z,4.50
2024-04-18T16:17:34.444Z,5.10
2024-04-18T16:20:13.584Z,5.43
2024-04-18T16:22:42.231Z,3.92
2024-04-18T16:25:30.399Z,4.68
2024-04-18T16:27:59.349Z,4.65
2024-04-18T16:32:59.919Z,6.70
2024-04-18T16:35:28.514Z,6.07
2024-04-18T16:38:15.260Z,4.38
2024-04-18T16:40:53.204Z,10.75
2024-04-18T16:43:37.033Z,4.30
2024-04-18T16:46:07.270Z,4.93
2024-04-18T16:48:35.456Z,4.38
2024-04-18T16:51:04.156Z,4.95
2024-04-18T16:53:54.338Z,6.40
2024-04-18T16:56:26.107Z,5.95
2024-04-18T16:58:54.157Z,4.50
2024-04-18T17:01:23.058Z,7.22
2024-04-18T17:03:51.597Z,6.13
2024-04-18T17:06:41.728Z,5.07
2024-04-18T17:09:15.892Z,5.68
2024-04-18T17:11:44.353Z,7.70
2024-04-18T17:14:39.578Z,5.20
2024-04-18T17:17:07.942Z,8.82
2024-04-18T17:19:54.980Z,12.73
2024-04-18T17:22:23.420Z,6.82
2024-04-18T17:24:51.280Z,11.63
2024-04-18T17:27:19.720Z,6.22
2024-04-18T17:29:47.802Z,9.38
2024-04-18T17:32:16.140Z,7.28
2024-04-18T17:34:44.062Z,6.70
2024-04-18T17:37:12.532Z,8.73
2024-04-18T17:39:53.443Z,6.60
2024-04-18T17:42:22.535Z,9.05
2024-04-18T17:44:56.648Z,8.88
2024-04-18T17:47:29.123Z,7.53
2024-04-18T17:49:57.327Z,9.13
2024-04-18T17:52:28.910Z,7.95
2024-04-18T17:54:59.547Z,11.02
2024-04-18T17:57:29.700Z,13.40
2024-04-18T18:00:16.708Z,10.00
2024-04-18T18:02:45.265Z,11.48
2024-04-18T18:05:33.250Z,10.75
2024-04-18T18:08:21.640Z,13.85
2024-04-18T18:10:49.748Z,9.95
2024-04-18T18:13:18.255Z,12.18
2024-04-18T18:15:46.374Z,9.77
2024-04-18T18:21:24.699Z,22.13
2024-04-18T18:23:53.346Z,19.25
2024-04-18T18:26:41.535Z,19.50
2024-04-18T18:29:10.105Z,38.28
2024-04-18T18:31:56.829Z,26.63
2024-04-18T18:34:25.358Z,32.47
2024-04-18T18:36:53.255Z,24.88
2024-04-18T18:39:21.816Z,27.67
2024-04-18T18:41:49.749Z,30.30
2024-04-18T18:44:18.116Z,31.55
2024-04-18T18:46:45.993Z,96.50
2024-04-18T18:49:17.708Z,65.85
2024-04-18T18:51:46.056Z,86.55
2024-04-18T18:54:14.720Z,97.50
2024-04-18T18:56:42.696Z,85.75
2024-04-18T18:59:29.703Z,69.60
2024-04-18T19:01:57.785Z,68.93
2024-04-18T19:04:26.726Z,71.70
2024-04-18T19:06:54.749Z,66.35
2024-04-18T19:09:23.652Z,86.03
2024-04-18T19:11:51.663Z,100.50
2024-04-18T19:14:19.574Z,93.60
2024-04-18T19:17:07.553Z,92.40
2024-04-18T19:19:35.948Z,93.68
2024-04-18T19:22:04.715Z,94.90
2024-04-18T19:24:32.910Z,107.38
2024-04-18T19:27:04.387Z,97.40
2024-04-18T19:29:40.332Z,141.70
2024-04-18T19:32:16.887Z,218.82
2024-04-18T19:34:45.014Z,201.32
2024-04-18T19:37:13.353Z,184.73
2024-04-18T19:39:41.449Z,180.23
2024-04-18T19:42:09.988Z,145.60
2024-04-18T19:44:37.893Z,133.95
2024-04-18T19:47:07.031Z,117.20
2024-04-18T19:49:38.461Z,116.22
2024-04-18T19:52:08.504Z,122.95
2024-04-18T19:54:39.620Z,119.25
2024-04-18T19:57:09.294Z,116.18
2024-04-18T19:59:39.312Z,224.38
2024-04-18T20:02:08.396Z,183.63
2024-04-18T20:04:39.658Z,404.92
2024-04-18T20:07:08.253Z,266.50
2024-04-18T20:09:36.346Z,189.48
2024-04-18T20:12:06.243Z,159.02
2024-04-18T20:14:39.552Z,137.88
2024-04-18T20:17:07.929Z,304.52
2024-04-18T20:19:36.028Z,105.43
2024-04-18T20:22:04.597Z,87.03
2024-04-18T20:24:32.591Z,73.47
2024-04-18T20:27:19.887Z,69.35
2024-04-18T20:29:48.218Z,60.08
2024-04-18T20:32:24.056Z,62.20
2024-04-18T20:34:52.769Z,75.47
2024-04-18T20:37:21.125Z,93.13
2024-04-18T20:39:49.598Z,104.95
2024-04-18T20:42:17.735Z,83.97
2024-04-18T20:45:03.297Z,115.05
2024-04-18T20:47:33.534Z,78.95
2024-04-18T20:50:03.575Z,79.70
2024-04-18T20:52:33.526Z,114.90
2024-04-18T20:55:02.736Z,101.88
2024-04-18T20:57:32.381Z,92.30
2024-04-18T21:00:01.170Z,85.27
2024-04-18T21:02:29.741Z,85.13
2024-04-18T21:04:58.387Z,67.15
2024-04-18T21:07:26.546Z,65.35
2024-04-18T21:09:55.041Z,44.35
2024-04-18T21:12:25.062Z,39.88
2024-04-18T21:14:54.454Z,38.00
2024-04-18T21:17:22.580Z,28.63
2024-04-18T21:19:51.275Z,30.70
2024-04-18T21:22:19.534Z,33.58
2024-04-18T21:24:48.180Z,31.70
2024-04-18T21:27:16.513Z,30.45
2024-04-18T21:29:45.071Z,30.70
2024-04-18T21:32:15.406Z,32.00
2024-04-18T21:34:44.307Z,29.83
2024-04-18T21:37:12.527Z,29.45
2024-04-18T21:39:41.140Z,29.02
2024-04-18T21:42:09.434Z,28.08
2024-04-18T21:44:39.129Z,28.30
2024-04-18T21:47:07.248Z,27.63
2024-04-18T21:49:35.788Z,29.63
2024-04-18T21:52:03.933Z,25.08
2024-04-18T21:54:32.563Z,26.52
2024-04-18T21:57:05.228Z,26.17
2024-04-18T21:59:33.714Z,21.52
2024-04-18T22:02:01.822Z,25.27
2024-04-18T22:04:30.359Z,24.13
2024-04-18T22:06:58.613Z,24.38
2024-04-18T22:09:27.382Z,30.45
2024-04-18T22:11:55.622Z,22.63
2024-04-18T22:14:24.131Z,25.08
2024-04-18T22:16:52.171Z,24.08
2024-04-18T22:19:20.833Z,24.95
2024-04-18T22:21:49.003Z,23.17
2024-04-18T22:24:17.634Z,26.27
2024-04-18T22:26:45.985Z,27.75
2024-04-18T22:29:14.399Z,25.20
2024-04-18T22:31:42.450Z,26.58
2024-04-18T22:34:21.947Z,27.25
2024-04-18T22:36:56.332Z,28.48
2024-04-18T22:39:24.755Z,21.83
2024-04-18T22:41:52.974Z,23.60
2024-04-18T22:44:21.516Z,27.70
2024-04-18T22:46:49.566Z,25.45
2024-04-18T22:49:18.079Z,28.42
2024-04-18T22:51:46.254Z,26.70
2024-04-18T22:54:14.784Z,22.48
2024-04-18T22:57:02.822Z,19.45
2024-04-18T22:59:31.320Z,22.90
2024-04-18T23:01:59.825Z,21.30
2024-04-18T23:04:28.633Z,21.70
2024-04-18T23:06:56.674Z,25.27
2024-04-18T23:09:25.169Z,26.02
2024-04-18T23:11:53.167Z,27.20
2024-04-18T23:14:21.640Z,28.23
2024-04-18T23:16:49.742Z,25.55
2024-04-18T23:19:18.347Z,23.55
2024-04-18T23:21:46.491Z,26.88
2024-04-18T23:24:33.582Z,24.30
2024-04-18T23:27:01.632Z,30.75
2024-04-18T23:29:31.438Z,24.42
2024-04-18T23:31:59.878Z,21.50
2024-04-18T23:34:28.477Z,22.55
2024-04-18T23:37:03.923Z,24.70
2024-04-18T23:39:32.531Z,19.85
2024-04-18T23:42:00.614Z,29.27
2024-04-18T23:44:29.370Z,22.63
2024-04-18T23:46:58.429Z,26.88
2024-04-18T23:49:26.968Z,25.85
2024-04-18T23:51:55.098Z,23.08
2024-04-18T23:54:23.718Z,22.52
2024-04-18T23:56:51.822Z,20.75
2024-04-18T23:59:20.272Z,21.20
